Time;durP1;ratioP1;P1;durP2;ratioP2;P2;SDS_P1;SDS_P2;PMS_P1;PMS_P2;Temp;Humidity;BMP_temperature;BMP_pressure;BME280_temperature;BME280_humidity;BME280_pressure;Samples;Min_cycle;Max_cycle;Signal;HPM_P1;HPM_P2
2022/04/13 00:02:11;;;;;;;9.02;5.32;;;15.70;99.90;;;;;;5117971;28;20273;-66
2022/04/13 00:04:37;;;;;;;14.38;6.53;;;15.60;99.90;;;;;;5117983;28;20073;-65
2022/04/13 00:07:03;;;;;;;15.43;6.25;;;15.50;99.90;;;;;;5117541;28;20036;-65
2022/04/13 00:09:29;;;;;;;13.95;6.80;;;15.50;99.90;;;;;;5117626;28;20418;-64
2022/04/13 00:11:55;;;;;;;14.77;6.65;;;15.40;99.90;;;;;;5117715;28;20357;-66
2022/04/13 00:14:24;;;;;;;11.13;6.72;;;15.50;99.90;;;;;;5117623;28;20019;-65
2022/04/13 00:16:54;;;;;;;13.25;6.13;;;15.50;99.90;;;;;;5117829;28;20040;-66
2022/04/13 00:19:21;;;;;;;11.23;6.20;;;15.60;99.90;;;;;;5117206;28;20055;-66
2022/04/13 00:21:48;;;;;;;17.17;6.40;;;15.40;99.90;;;;;;5116848;28;20410;-65
2022/04/13 00:24:14;;;;;;;11.25;6.10;;;15.40;99.90;;;;;;5117421;28;20101;-66
2022/04/13 00:26:40;;;;;;;12.75;6.50;;;15.40;99.90;;;;;;5117373;28;20089;-66
2022/04/13 00:29:06;;;;;;;14.23;6.15;;;15.30;99.90;;;;;;5117622;28;20443;-66
2022/04/13 00:31:31;;;;;;;14.35;5.60;;;15.30;99.90;;;;;;5117400;28;20027;-65
2022/04/13 00:33:57;;;;;;;13.95;5.72;;;15.20;99.90;;;;;;5117364;28;20042;-66
2022/04/13 00:36:23;;;;;;;10.70;5.82;;;15.30;99.90;;;;;;5117386;28;20354;-66
2022/04/13 00:38:49;;;;;;;10.70;5.53;;;15.30;99.90;;;;;;5099594;28;20082;-65
2022/04/13 00:41:17;;;;;;;12.68;5.97;;;15.30;99.90;;;;;;5117310;28;20092;-65
2022/04/13 00:43:43;;;;;;;9.68;5.72;;;15.30;99.90;;;;;;5117133;28;20438;-65
2022/04/13 00:46:08;;;;;;;10.98;5.88;;;15.30;99.90;;;;;;5117662;28;20044;-65
2022/04/13 00:48:35;;;;;;;12.18;5.90;;;15.20;99.90;;;;;;5117166;28;20035;-65
2022/04/13 00:51:02;;;;;;;10.40;6.03;;;15.20;99.90;;;;;;5117723;28;20062;-66
2022/04/13 00:53:30;;;;;;;10.38;5.45;;;15.30;99.90;;;;;;5116498;28;20072;-65
2022/04/13 00:55:58;;;;;;;15.32;6.60;;;15.20;99.90;;;;;;5117120;28;20035;-65
2022/04/13 00:58:27;;;;;;;8.88;5.57;;;15.20;99.90;;;;;;5117120;28;20093;-66
2022/04/13 01:00:58;;;;;;;14.35;6.18;;;15.10;99.90;;;;;;5117239;28;20352;-66
2022/04/13 01:03:25;;;;;;;12.88;6.18;;;15.10;99.90;;;;;;5119527;28;20127;-66
2022/04/13 01:05:52;;;;;;;13.50;6.40;;;15.10;99.90;;;;;;5121544;28;20283;-66
2022/04/13 01:08:19;;;;;;;11.15;5.80;;;15.00;99.90;;;;;;5121046;28;20354;-67
2022/04/13 01:10:46;;;;;;;11.43;6.00;;;15.00;99.90;;;;;;5119520;28;20111;-66
2022/04/13 01:13:14;;;;;;;10.98;6.13;;;15.00;99.90;;;;;;5120952;28;20043;-66
2022/04/13 01:15:40;;;;;;;12.90;6.47;;;15.10;99.90;;;;;;5120861;28;20028;-66
2022/04/13 01:18:06;;;;;;;8.63;5.80;;;14.90;99.90;;;;;;5120867;28;20031;-66
2022/04/13 01:20:34;;;;;;;12.25;6.47;;;14.80;99.90;;;;;;5120833;28;20153;-65
2022/04/13 01:23:00;;;;;;;12.93;6.68;;;14.80;99.90;;;;;;5120812;28;20042;-65
2022/04/13 01:25:27;;;;;;;12.88;7.00;;;14.70;99.90;;;;;;5120632;28;20054;-65
2022/04/13 01:27:54;;;;;;;13.80;6.80;;;14.60;99.90;;;;;;5120002;28;20051;-65
2022/04/13 01:30:23;;;;;;;13.25;6.35;;;14.60;99.90;;;;;;5120013;28;20023;-66
2022/04/13 01:32:51;;;;;;;14.68;7.60;;;14.60;99.90;;;;;;5120548;28;20326;-65
2022/04/13 01:35:17;;;;;;;15.05;7.57;;;14.60;99.90;;;;;;5120563;28;20028;-65
2022/04/13 01:37:42;;;;;;;11.52;7.22;;;14.60;99.90;;;;;;5120563;28;20059;-65
2022/04/13 01:40:10;;;;;;;15.80;7.82;;;14.50;99.90;;;;;;5120469;28;20415;-65
2022/04/13 01:42:36;;;;;;;12.93;7.43;;;14.50;99.90;;;;;;5119621;28;20048;-65
2022/04/13 01:45:03;;;;;;;13.60;8.18;;;14.50;99.90;;;;;;5119542;28;20036;-65
2022/04/13 01:47:29;;;;;;;16.45;8.10;;;14.50;99.90;;;;;;5119449;28;20307;-65
2022/04/13 01:49:56;;;;;;;13.35;8.00;;;14.50;99.90;;;;;;5118245;28;20032;-65
2022/04/13 01:52:22;;;;;;;16.27;8.82;;;14.40;99.90;;;;;;5120227;28;20027;-66
2022/04/13 01:54:48;;;;;;;13.20;8.02;;;14.30;99.90;;;;;;5120198;28;20031;-65
2022/04/13 01:57:13;;;;;;;19.85;9.23;;;14.40;99.90;;;;;;5120174;28;20036;-66
2022/04/13 01:59:39;;;;;;;14.27;8.57;;;14.40;99.90;;;;;;5119234;28;20040;-65
2022/04/13 02:02:05;;;;;;;19.38;9.40;;;14.50;99.90;;;;;;5119471;28;20303;-65
2022/04/13 02:04:31;;;;;;;17.60;9.07;;;14.50;99.90;;;;;;5102538;28;20041;-64
2022/04/13 02:06:58;;;;;;;13.23;8.88;;;14.50;99.90;;;;;;5120113;28;20395;-64
2022/04/13 02:09:24;;;;;;;16.30;9.07;;;14.50;99.90;;;;;;5119975;28;20023;-64
2022/04/13 02:11:49;;;;;;;15.43;9.00;;;14.40;99.90;;;;;;5119897;28;20076;-65
2022/04/13 02:14:15;;;;;;;15.63;8.75;;;14.40;99.90;;;;;;5119039;28;20096;-64
2022/04/13 02:16:42;;;;;;;16.35;8.43;;;14.40;99.90;;;;;;5120096;28;20020;-64
2022/04/13 02:19:08;;;;;;;14.65;8.48;;;14.30;99.90;;;;;;5118928;28;20073;-64
2022/04/13 02:21:34;;;;;;;13.00;8.88;;;14.30;99.90;;;;;;5119700;28;20031;-65
2022/04/13 02:24:00;;;;;;;15.95;9.20;;;14.20;99.90;;;;;;5119631;28;20027;-64
2022/04/13 02:26:26;;;;;;;16.02;8.98;;;14.20;99.90;;;;;;5118845;28;20035;-65
2022/04/13 02:28:55;;;;;;;15.55;9.43;;;14.10;99.90;;;;;;5118877;28;20309;-64
2022/04/13 02:31:21;;;;;;;18.95;10.20;;;14.00;99.90;;;;;;5119891;28;20028;-64
2022/04/13 02:33:47;;;;;;;13.93;9.02;;;13.80;99.90;;;;;;5118739;28;20024;-64
2022/04/13 02:36:14;;;;;;;17.25;9.65;;;13.80;99.90;;;;;;5119071;28;20070;-65
2022/04/13 02:38:39;;;;;;;14.25;9.57;;;13.80;99.90;;;;;;5119296;28;20028;-65
2022/04/13 02:41:05;;;;;;;16.48;10.18;;;13.70;99.90;;;;;;5118608;28;20051;-65
2022/04/13 02:43:31;;;;;;;15.35;9.70;;;13.60;99.90;;;;;;5118287;28;20043;-65
2022/04/13 02:45:57;;;;;;;16.65;10.68;;;13.50;99.90;;;;;;5118446;28;20036;-65
2022/04/13 02:48:23;;;;;;;15.35;10.00;;;13.60;99.90;;;;;;5119301;28;20023;-64
2022/04/13 02:50:49;;;;;;;15.05;9.55;;;13.70;99.90;;;;;;5119171;28;20115;-65
2022/04/13 02:53:15;;;;;;;17.08;10.02;;;13.80;99.90;;;;;;5119036;28;20371;-65
2022/04/13 02:55:42;;;;;;;15.80;9.65;;;13.80;99.90;;;;;;5119534;28;20110;-65
2022/04/13 02:58:08;;;;;;;17.00;9.68;;;13.80;99.90;;;;;;5119169;28;20020;-65
2022/04/13 03:00:34;;;;;;;16.45;9.98;;;13.80;99.90;;;;;;5118959;28;20114;-64
2022/04/13 03:03:00;;;;;;;18.60;10.65;;;13.70;99.90;;;;;;5118895;28;20112;-64
2022/04/13 03:05:25;;;;;;;19.15;10.40;;;13.70;99.90;;;;;;5118067;28;20047;-64
2022/04/13 03:07:51;;;;;;;17.33;10.25;;;13.70;99.90;;;;;;5118055;28;20084;-64
2022/04/13 03:10:17;;;;;;;14.63;10.40;;;13.70;99.90;;;;;;5118747;28;20024;-64
2022/04/13 03:12:43;;;;;;;15.90;10.20;;;13.80;99.90;;;;;;5118642;28;20111;-65
2022/04/13 03:15:11;;;;;;;15.20;10.40;;;13.80;99.90;;;;;;5118595;28;20127;-64
2022/04/13 03:17:37;;;;;;;16.48;10.88;;;13.80;99.90;;;;;;5118643;28;20118;-64
2022/04/13 03:20:03;;;;;;;17.55;10.77;;;13.90;99.90;;;;;;5118427;28;20348;-64
2022/04/13 03:22:29;;;;;;;16.48;10.75;;;13.90;99.90;;;;;;5118494;28;20020;-64
2022/04/13 03:24:55;;;;;;;14.90;10.57;;;13.90;99.90;;;;;;5117286;28;20031;-64
2022/04/13 03:27:20;;;;;;;17.13;10.82;;;14.00;99.90;;;;;;5118263;28;20084;-64
2022/04/13 03:29:46;;;;;;;17.23;10.75;;;13.90;99.90;;;;;;5118339;28;20024;-64
2022/04/13 03:32:12;;;;;;;19.88;10.85;;;13.90;99.90;;;;;;5118238;28;20027;-64
2022/04/13 03:34:38;;;;;;;23.02;11.82;;;13.90;99.90;;;;;;5118205;28;20145;-66
2022/04/13 03:37:04;;;;;;;15.27;10.13;;;14.00;99.90;;;;;;5118159;28;20039;-64
2022/04/13 03:39:30;;;;;;;17.58;10.70;;;14.00;99.90;;;;;;5118166;28;20039;-64
2022/04/13 03:41:56;;;;;;;22.05;11.38;;;13.90;99.90;;;;;;5117520;28;20047;-65
2022/04/13 03:44:22;;;;;;;18.42;11.68;;;13.80;99.90;;;;;;5117906;28;20052;-65
2022/04/13 03:46:49;;;;;;;17.20;10.60;;;13.80;99.90;;;;;;5118016;28;20444;-65
2022/04/13 03:49:15;;;;;;;18.10;10.93;;;13.80;99.90;;;;;;5118032;28;20024;-65
2022/04/13 03:51:41;;;;;;;18.00;10.95;;;13.80;99.90;;;;;;5118436;28;20028;-65
2022/04/13 03:54:07;;;;;;;18.13;11.38;;;13.90;99.90;;;;;;5117918;28;20058;-65
2022/04/13 03:56:33;;;;;;;20.85;11.48;;;14.00;99.90;;;;;;5117936;28;20051;-65
2022/04/13 03:59:04;;;;;;;19.55;11.48;;;14.10;99.90;;;;;;5117849;28;20067;-65
2022/04/13 04:01:31;;;;;;;19.00;11.35;;;14.10;99.90;;;;;;5117143;28;20043;-65
2022/04/13 04:03:57;;;;;;;13.70;11.02;;;14.20;99.90;;;;;;5117464;28;20041;-65
2022/04/13 04:06:26;;;;;;;17.98;10.65;;;14.30;99.90;;;;;;5117991;28;20290;-65
2022/04/13 04:08:52;;;;;;;16.23;10.73;;;14.30;99.90;;;;;;5117678;28;20077;-65
2022/04/13 04:11:18;;;;;;;18.17;11.55;;;14.20;99.90;;;;;;5117641;28;20028;-65
2022/04/13 04:13:44;;;;;;;17.77;11.68;;;14.10;99.90;;;;;;5118121;28;20111;-65
2022/04/13 04:16:10;;;;;;;19.92;12.18;;;14.00;99.90;;;;;;5117579;28;20059;-65
2022/04/13 04:18:36;;;;;;;16.58;11.43;;;13.80;99.90;;;;;;5117549;28;20048;-66
2022/04/13 04:21:02;;;;;;;17.60;11.52;;;13.70;99.90;;;;;;5117938;28;20043;-64
2022/04/13 04:23:27;;;;;;;19.58;11.80;;;13.60;99.90;;;;;;5117436;28;20299;-64
2022/04/13 04:25:53;;;;;;;19.60;12.55;;;13.60;99.90;;;;;;5117385;28;20032;-65
2022/04/13 04:28:19;;;;;;;19.27;12.18;;;13.60;99.90;;;;;;5116769;28;20028;-66
2022/04/13 04:30:45;;;;;;;17.92;11.85;;;13.60;99.90;;;;;;5117413;28;20043;-65
2022/04/13 04:33:14;;;;;;;18.88;12.60;;;13.60;99.90;;;;;;5117471;28;20039;-65
2022/04/13 04:35:40;;;;;;;22.98;12.50;;;13.60;99.90;;;;;;5117334;28;20039;-65
2022/04/13 04:38:06;;;;;;;22.55;12.90;;;13.50;99.90;;;;;;5120670;28;20042;-65
2022/04/13 04:40:32;;;;;;;23.65;13.40;;;13.50;99.90;;;;;;5121733;28;20039;-65
2022/04/13 04:43:00;;;;;;;20.75;13.27;;;13.50;99.90;;;;;;5120771;28;20381;-65
2022/04/13 04:45:26;;;;;;;18.38;13.35;;;13.50;99.90;;;;;;5121440;28;20043;-65
2022/04/13 04:47:53;;;;;;;20.77;14.18;;;13.40;99.90;;;;;;5121443;28;20027;-65
2022/04/13 04:50:21;;;;;;;25.10;14.50;;;13.30;99.90;;;;;;5121534;28;20395;-65
2022/04/13 04:52:48;;;;;;;18.95;14.18;;;13.30;99.90;;;;;;5121369;28;20047;-64
2022/04/13 04:55:16;;;;;;;19.38;13.20;;;13.30;99.90;;;;;;5120691;28;20303;-65
2022/04/13 04:57:43;;;;;;;24.02;13.82;;;13.30;99.90;;;;;;5120548;28;20038;-65
2022/04/13 05:00:12;;;;;;;20.02;14.40;;;13.20;99.90;;;;;;5121246;28;20383;-66
2022/04/13 05:02:39;;;;;;;18.90;14.07;;;13.10;99.90;;;;;;5121311;28;20272;-64
2022/04/13 05:05:06;;;;;;;24.05;14.35;;;13.10;99.90;;;;;;5120376;28;20020;-65
2022/04/13 05:07:32;;;;;;;19.70;14.50;;;13.00;99.90;;;;;;5121122;28;20024;-65
2022/04/13 05:10:00;;;;;;;19.15;13.82;;;13.10;99.90;;;;;;5121006;28;20031;-65
2022/04/13 05:12:27;;;;;;;21.20;14.07;;;13.00;99.90;;;;;;5121278;28;20396;-65
2022/04/13 05:14:55;;;;;;;22.98;15.63;;;13.10;99.90;;;;;;5120971;28;20038;-65
2022/04/13 05:17:24;;;;;;;24.55;14.18;;;13.10;99.90;;;;;;5120510;28;20291;-65
2022/04/13 05:19:50;;;;;;;22.10;14.77;;;13.10;99.90;;;;;;5120262;28;20466;-67
2022/04/13 05:22:16;;;;;;;22.90;15.70;;;13.10;99.90;;;;;;5102953;28;20310;-66
2022/04/13 05:24:42;;;;;;;21.20;14.35;;;13.20;99.90;;;;;;5120846;28;20120;-65
2022/04/13 05:27:09;;;;;;;25.40;15.52;;;13.30;99.90;;;;;;5120918;28;20317;-65
2022/04/13 05:29:35;;;;;;;22.63;14.43;;;13.30;99.90;;;;;;5120639;28;20383;-63
2022/04/13 05:32:02;;;;;;;22.63;15.25;;;13.50;99.90;;;;;;5119989;28;20393;-65
2022/04/13 05:34:28;;;;;;;21.45;14.55;;;13.50;99.90;;;;;;5120695;28;20062;-64
2022/04/13 05:36:55;;;;;;;22.40;15.05;;;13.60;99.90;;;;;;5120541;28;20051;-64
2022/04/13 05:39:21;;;;;;;20.63;13.85;;;13.60;99.90;;;;;;5120556;28;20110;-65
2022/04/13 05:41:47;;;;;;;24.33;14.43;;;13.70;99.90;;;;;;5120508;28;20402;-65
2022/04/13 05:44:12;;;;;;;21.75;14.05;;;13.80;99.90;;;;;;5120367;28;20362;-65
2022/04/13 05:46:38;;;;;;;17.08;13.25;;;13.80;99.90;;;;;;5120266;28;20399;-66
2022/04/13 05:49:04;;;;;;;20.85;14.52;;;14.00;99.90;;;;;;5119916;28;20467;-65
2022/04/13 05:51:30;;;;;;;22.73;13.80;;;14.10;99.90;;;;;;5120299;28;20112;-65
2022/04/13 05:53:56;;;;;;;21.60;13.95;;;14.10;99.90;;;;;;5120319;28;20062;-66
2022/04/13 05:56:22;;;;;;;16.67;12.73;;;14.20;99.90;;;;;;5119623;28;20035;-66
2022/04/13 05:58:47;;;;;;;21.38;13.88;;;14.30;99.90;;;;;;5119451;28;20295;-64
2022/04/13 06:01:13;;;;;;;21.42;14.10;;;14.40;99.90;;;;;;5120317;28;20102;-64
2022/04/13 06:03:39;;;;;;;23.55;14.52;;;14.50;99.90;;;;;;5120636;28;20031;-65
2022/04/13 06:06:05;;;;;;;20.30;12.32;;;14.70;99.90;;;;;;5120121;28;20024;-64
2022/04/13 06:08:30;;;;;;;16.58;12.95;;;14.80;99.90;;;;;;5120206;28;20024;-64
2022/04/13 06:10:56;;;;;;;19.33;12.95;;;14.90;99.90;;;;;;5119992;28;20024;-64
2022/04/13 06:13:22;;;;;;;18.92;13.25;;;14.90;99.90;;;;;;5119899;28;20040;-65
2022/04/13 06:15:48;;;;;;;21.58;14.38;;;15.10;99.90;;;;;;5119721;28;20035;-64
2022/04/13 06:18:13;;;;;;;18.35;13.18;;;15.20;99.90;;;;;;5119741;28;20028;-65
2022/04/13 06:20:39;;;;;;;23.45;13.88;;;15.20;99.90;;;;;;5119826;28;20042;-65
2022/04/13 06:23:05;;;;;;;23.58;14.27;;;15.40;99.90;;;;;;5119523;28;20123;-64
2022/04/13 06:25:34;;;;;;;18.27;13.05;;;15.50;99.90;;;;;;5119627;28;20092;-65
2022/04/13 06:28:00;;;;;;;22.77;12.70;;;15.60;99.90;;;;;;5119751;28;20330;-63
2022/04/13 06:30:26;;;;;;;16.35;11.38;;;15.80;99.90;;;;;;5118353;28;20024;-65
2022/04/13 06:32:52;;;;;;;17.55;11.80;;;16.00;99.90;;;;;;5118723;28;20084;-63
2022/04/13 06:35:18;;;;;;;20.15;12.68;;;16.10;99.90;;;;;;5119696;28;20114;-65
2022/04/13 06:37:47;;;;;;;20.92;12.63;;;16.20;99.90;;;;;;5119972;28;20049;-64
2022/04/13 06:40:14;;;;;;;25.20;12.90;;;16.20;99.90;;;;;;5119330;28;20058;-64
2022/04/13 06:42:41;;;;;;;22.00;12.93;;;16.00;99.90;;;;;;5118405;28;20096;-65
2022/04/13 06:45:10;;;;;;;28.35;13.43;;;15.90;99.90;;;;;;5119124;28;20031;-64
2022/04/13 06:47:36;;;;;;;25.60;12.55;;;16.00;99.90;;;;;;5119119;28;20095;-64
2022/04/13 06:50:03;;;;;;;21.65;12.32;;;15.80;99.90;;;;;;5119116;28;20038;-64
2022/04/13 06:52:33;;;;;;;20.17;12.05;;;15.90;99.90;;;;;;5119195;28;20020;-64
2022/04/13 06:54:59;;;;;;;18.25;12.13;;;15.90;99.90;;;;;;5118286;28;20039;-64
2022/04/13 06:57:25;;;;;;;24.15;12.00;;;16.00;99.90;;;;;;5119263;28;20031;-64
2022/04/13 06:59:51;;;;;;;16.27;10.38;;;16.00;99.90;;;;;;5118106;28;20036;-63
2022/04/13 07:02:17;;;;;;;17.48;11.93;;;16.20;99.90;;;;;;5118324;28;20031;-64
2022/04/13 07:04:42;;;;;;;20.60;11.63;;;16.20;99.90;;;;;;5119120;28;20020;-65
2022/04/13 07:07:08;;;;;;;19.98;12.00;;;16.00;99.90;;;;;;5118602;28;20028;-65
2022/04/13 07:09:34;;;;;;;26.13;13.27;;;16.00;99.90;;;;;;5119014;28;20028;-65
2022/04/13 07:12:00;;;;;;;21.10;12.75;;;16.00;99.90;;;;;;5118651;28;20031;-64
2022/04/13 07:14:26;;;;;;;21.90;12.93;;;15.90;99.90;;;;;;5119206;28;20031;-65
2022/04/13 07:16:52;;;;;;;22.20;12.02;;;16.10;99.90;;;;;;5117890;28;20155;-65
2022/04/13 07:19:17;;;;;;;23.60;12.13;;;16.10;99.90;;;;;;5118410;28;20422;-65
2022/04/13 07:21:43;;;;;;;19.63;10.90;;;16.40;99.90;;;;;;5117914;28;20126;-65
2022/04/13 07:24:12;;;;;;;18.65;11.38;;;16.60;99.90;;;;;;5118580;28;20032;-65
2022/04/13 07:26:38;;;;;;;19.70;11.40;;;16.60;99.90;;;;;;5118231;28;20390;-65
2022/04/13 07:29:04;;;;;;;18.60;11.35;;;16.50;99.90;;;;;;5117784;28;20020;-65
2022/04/13 07:31:31;;;;;;;17.63;11.10;;;16.40;99.90;;;;;;5118592;28;20088;-65
2022/04/13 07:33:57;;;;;;;20.55;11.13;;;16.20;99.90;;;;;;5118261;28;20318;-65
2022/04/13 07:36:23;;;;;;;14.75;10.43;;;16.40;99.90;;;;;;5118121;28;20046;-64
2022/04/13 07:38:52;;;;;;;15.27;11.13;;;16.40;99.90;;;;;;5117394;28;20066;-64
2022/04/13 07:41:17;;;;;;;21.30;11.43;;;16.50;99.90;;;;;;5117769;28;20074;-64
2022/04/13 07:43:47;;;;;;;19.42;10.85;;;16.60;99.90;;;;;;5117292;28;20087;-64
2022/04/13 07:46:12;;;;;;;18.77;10.95;;;16.60;99.90;;;;;;5117970;28;20391;-63
2022/04/13 07:48:39;;;;;;;16.00;9.80;;;16.70;99.90;;;;;;5117629;28;20043;-64
2022/04/13 07:51:06;;;;;;;22.88;11.00;;;17.00;99.90;;;;;;5117948;28;20089;-63
2022/04/13 07:53:31;;;;;;;18.98;10.38;;;17.20;99.90;;;;;;5117924;28;20028;-63
2022/04/13 07:55:57;;;;;;;15.40;9.23;;;17.40;99.90;;;;;;5117876;28;20034;-65
2022/04/13 07:58:23;;;;;;;13.82;9.70;;;17.50;99.90;;;;;;5117731;28;20039;-65
2022/04/13 08:00:49;;;;;;;17.63;9.75;;;17.60;99.90;;;;;;5117428;28;20035;-63
2022/04/13 08:03:15;;;;;;;14.50;9.55;;;17.40;99.90;;;;;;5117046;28;20123;-64
2022/04/13 08:05:41;;;;;;;17.13;9.90;;;17.60;99.90;;;;;;5118125;28;20406;-63
2022/04/13 08:08:07;;;;;;;15.15;10.15;;;17.70;99.90;;;;;;5116917;28;20088;-64
2022/04/13 08:10:33;;;;;;;15.45;9.13;;;18.00;99.90;;;;;;5117407;28;20114;-64
2022/04/13 08:12:58;;;;;;;17.83;7.68;;;17.90;99.90;;;;;;5117685;28;20024;-65
2022/04/13 08:15:24;;;;;;;19.23;9.73;;;17.70;99.90;;;;;;5117510;28;20024;-63
2022/04/13 08:17:50;;;;;;;20.13;9.07;;;17.80;99.90;;;;;;5117311;28;20047;-65
2022/04/13 08:20:16;;;;;;;15.05;9.18;;;17.80;99.90;;;;;;5116602;28;20062;-65
2022/04/13 08:22:43;;;;;;;14.88;8.68;;;17.50;99.90;;;;;;5117262;28;20027;-65
2022/04/13 08:25:10;;;;;;;13.85;8.07;;;17.60;99.90;;;;;;5116647;28;20057;-65
2022/04/13 08:27:35;;;;;;;19.15;9.30;;;17.70;99.90;;;;;;5117372;28;20309;-65
2022/04/13 08:30:01;;;;;;;19.85;9.93;;;18.00;99.90;;;;;;5116628;28;20111;-66
2022/04/13 08:32:27;;;;;;;15.98;9.57;;;17.90;99.90;;;;;;5117315;28;20106;-65
2022/04/13 08:34:53;;;;;;;21.85;10.95;;;18.00;99.90;;;;;;5117365;28;20055;-66
2022/04/13 08:37:23;;;;;;;21.40;10.68;;;18.10;99.90;;;;;;5117138;28;20031;-65
2022/04/13 08:39:49;;;;;;;13.10;8.98;;;18.20;99.90;;;;;;5117390;28;20418;-66
2022/04/13 08:42:18;;;;;;;12.50;8.60;;;18.10;99.90;;;;;;5117005;28;20035;-64
2022/04/13 08:44:50;;;;;;;13.77;8.70;;;18.00;99.90;;;;;;5116643;28;20057;-65
2022/04/13 08:47:21;;;;;;;13.93;8.43;;;17.80;99.90;;;;;;5116307;28;20050;-65
2022/04/13 08:49:51;;;;;;;16.25;8.55;;;17.80;99.90;;;;;;5117140;28;20023;-65
2022/04/13 08:52:31;;;;;;;14.52;9.23;;;17.80;99.90;;;;;;5117164;28;20067;-65
2022/04/13 08:55:06;;;;;;;17.08;8.93;;;17.70;99.90;;;;;;5116406;28;20028;-65
2022/04/13 08:57:37;;;;;;;18.15;9.70;;;17.50;99.90;;;;;;5116451;28;20036;-65
2022/04/13 09:00:06;;;;;;;20.45;10.68;;;17.50;99.90;;;;;;5117177;28;20035;-63
2022/04/13 09:02:47;;;;;;;23.48;13.05;;;17.40;99.90;;;;;;5117037;28;20118;-64
2022/04/13 09:05:19;;;;;;;19.63;12.88;;;17.20;99.90;;;;;;5116399;28;20043;-64
2022/04/13 09:07:57;;;;;;;18.75;12.63;;;17.30;99.90;;;;;;5117120;28;20035;-65
2022/04/13 09:10:24;;;;;;;20.58;12.40;;;17.40;99.90;;;;;;5117710;28;20020;-65
2022/04/13 09:12:52;;;;;;;26.30;13.38;;;17.50;99.90;;;;;;5116401;28;20028;-65
2022/04/13 09:15:20;;;;;;;25.40;14.82;;;17.80;99.90;;;;;;5117318;28;20283;-65
2022/04/13 09:17:46;;;;;;;18.25;15.18;;;17.90;99.90;;;;;;5116389;28;20023;-66
2022/04/13 09:20:13;;;;;;;22.67;14.32;;;18.10;99.90;;;;;;5117015;28;20043;-65
2022/04/13 09:22:42;;;;;;;21.98;14.55;;;18.20;99.90;;;;;;5116564;28;20030;-64
2022/04/13 09:25:09;;;;;;;25.50;15.75;;;18.40;99.90;;;;;;5120159;28;20317;-64
2022/04/13 09:27:37;;;;;;;22.83;15.68;;;18.00;99.90;;;;;;5120656;28;20028;-64
2022/04/13 09:30:05;;;;;;;26.50;18.30;;;17.90;99.90;;;;;;5119937;28;20028;-64
2022/04/13 09:32:31;;;;;;;25.90;17.83;;;18.10;99.90;;;;;;5120592;28;20024;-63
2022/04/13 09:34:58;;;;;;;26.52;17.08;;;17.90;99.90;;;;;;5120725;28;20050;-63
2022/04/13 09:37:25;;;;;;;24.48;15.93;;;17.70;99.90;;;;;;5119925;28;20039;-64
2022/04/13 09:39:51;;;;;;;20.83;15.25;;;17.70;99.90;;;;;;5120580;28;20100;-65
2022/04/13 09:42:19;;;;;;;21.02;14.45;;;17.80;99.90;;;;;;5120702;28;20031;-65
2022/04/13 09:44:55;;;;;;;20.67;14.45;;;17.80;99.90;;;;;;5120333;28;20492;-64
2022/04/13 09:47:21;;;;;;;19.00;12.68;;;17.50;99.90;;;;;;5120419;27;20118;-66
2022/04/13 09:49:53;;;;;;;20.42;13.98;;;17.40;99.90;;;;;;5119689;28;20102;-64
2022/04/13 09:52:26;;;;;;;19.67;13.47;;;17.40;99.90;;;;;;5120395;28;20084;-64
2022/04/13 09:54:52;;;;;;;16.50;11.32;;;17.50;99.90;;;;;;5120267;28;20268;-64
2022/04/13 09:57:25;;;;;;;17.02;12.07;;;17.50;99.90;;;;;;5120277;28;20032;-64
2022/04/13 10:00:00;;;;;;;15.50;11.43;;;17.60;99.90;;;;;;5120171;28;20027;-62
2022/04/13 10:02:40;;;;;;;21.27;11.43;;;17.40;99.90;;;;;;5119241;28;20035;-65
2022/04/13 10:05:16;;;;;;;23.25;12.88;;;17.40;99.90;;;;;;5120573;28;20039;-64
2022/04/13 10:07:43;;;;;;;16.55;11.52;;;17.50;99.90;;;;;;5120022;28;20039;-64
2022/04/13 10:10:25;;;;;;;14.98;10.95;;;17.40;99.90;;;;;;5120033;28;20391;-63
2022/04/13 10:12:52;;;;;;;22.00;11.80;;;17.20;99.90;;;;;;5119986;28;20046;-65
2022/04/13 10:15:18;;;;;;;21.42;12.23;;;17.10;99.90;;;;;;5102210;28;20407;-64
2022/04/13 10:17:44;;;;;;;19.63;13.02;;;17.20;99.90;;;;;;5119035;28;20127;-64
2022/04/13 10:20:10;;;;;;;16.40;11.35;;;17.40;99.90;;;;;;5119079;28;20028;-64
2022/04/13 10:23:01;;;;;;;19.27;12.38;;;17.40;99.90;;;;;;5119754;28;20028;-64
2022/04/13 10:25:28;;;;;;;16.08;11.50;;;17.60;99.90;;;;;;5119413;28;20031;-65
2022/04/13 10:28:00;;;;;;;16.30;12.45;;;17.50;99.90;;;;;;5118885;28;20030;-64
2022/04/13 10:30:36;;;;;;;21.55;12.68;;;17.50;99.90;;;;;;5119597;28;20104;-65
2022/04/13 10:33:11;;;;;;;18.77;12.93;;;17.40;99.90;;;;;;5119488;28;20081;-62
2022/04/13 10:35:44;;;;;;;19.35;13.32;;;16.90;99.90;;;;;;5117529;28;20284;-63
2022/04/13 10:38:12;;;;;;;18.23;12.95;;;16.60;99.90;;;;;;5118845;28;20416;-63
2022/04/13 10:40:40;;;;;;;18.90;12.43;;;16.50;99.90;;;;;;5119363;28;20019;-63
2022/04/13 10:43:08;;;;;;;16.13;12.25;;;16.60;99.90;;;;;;5119277;28;20054;-64
2022/04/13 10:45:36;;;;;;;17.40;11.93;;;16.50;99.90;;;;;;5102301;28;20024;-63
2022/04/13 10:48:06;;;;;;;21.77;12.75;;;16.40;99.90;;;;;;5118344;28;20292;-63
2022/04/13 10:50:49;;;;;;;20.27;12.07;;;16.40;99.90;;;;;;5119203;28;20044;-62
2022/04/13 10:53:28;;;;;;;17.88;11.90;;;16.70;99.90;;;;;;5119763;28;20023;-62
2022/04/13 10:56:01;;;;;;;14.38;11.40;;;16.60;99.90;;;;;;5119109;28;20075;-62
2022/04/13 10:58:51;;;;;;;21.50;12.75;;;16.40;99.90;;;;;;5118347;28;20278;-63
2022/04/13 11:01:20;;;;;;;17.85;12.23;;;16.40;99.90;;;;;;5119350;28;20036;-62
2022/04/13 11:03:47;;;;;;;16.48;11.60;;;16.40;99.90;;;;;;5118875;28;20035;-62
2022/04/13 11:06:13;;;;;;;19.70;11.88;;;16.10;99.90;;;;;;5119199;28;20032;-62
2022/04/13 11:09:07;;;;;;;18.05;12.15;;;16.20;99.90;;;;;;5118848;28;20349;-63
2022/04/13 11:11:35;;;;;;;18.73;12.80;;;16.30;99.90;;;;;;5118825;28;20032;-61
2022/04/13 11:14:15;;;;;;;17.80;12.57;;;16.50;99.90;;;;;;5118694;28;20028;-64
2022/04/13 11:16:41;;;;;;;21.00;12.00;;;16.20;99.90;;;;;;5117864;28;20031;-63
2022/04/13 11:19:06;;;;;;;19.35;12.32;;;16.00;99.90;;;;;;5119066;28;20268;-64
2022/04/13 11:21:55;;;;;;;19.45;12.25;;;15.80;99.90;;;;;;5118421;28;20028;-64
2022/04/13 11:24:34;;;;;;;15.77;12.15;;;16.10;99.90;;;;;;5118473;28;20460;-64
2022/04/13 11:27:00;;;;;;;18.08;12.80;;;16.20;99.90;;;;;;5118357;28;20338;-63
2022/04/13 11:30:02;;;;;;;19.02;12.45;;;16.50;99.90;;;;;;5118476;28;20019;-64
2022/04/13 11:32:33;;;;;;;19.30;13.60;;;16.70;99.90;;;;;;5118452;28;20028;-63
2022/04/13 11:35:01;;;;;;;21.98;11.63;;;17.00;99.90;;;;;;5118354;28;20019;-64
2022/04/13 11:37:43;;;;;;;16.38;11.93;;;16.60;99.90;;;;;;5118305;28;20035;-64
2022/04/13 11:40:18;;;;;;;16.23;11.45;;;16.50;99.90;;;;;;5118930;28;20049;-64
2022/04/13 11:42:46;;;;;;;16.58;10.90;;;16.30;99.90;;;;;;5118081;28;20123;-64
2022/04/13 11:45:14;;;;;;;15.63;11.15;;;16.30;99.90;;;;;;5117252;28;20070;-63
2022/04/13 11:47:53;;;;;;;14.38;11.20;;;16.70;99.90;;;;;;5117792;28;20460;-64
2022/04/13 11:50:21;;;;;;;17.02;10.52;;;17.20;99.90;;;;;;5118467;28;20061;-64
2022/04/13 11:53:13;;;;;;;18.15;10.90;;;17.30;99.90;;;;;;5117966;28;20015;-65
2022/04/13 11:55:39;;;;;;;19.17;11.55;;;17.40;99.90;;;;;;5117888;28;20099;-64
2022/04/13 11:58:07;;;;;;;16.30;10.80;;;17.80;99.90;;;;;;5118072;28;20103;-64
2022/04/13 12:00:42;;;;;;;14.90;11.20;;;18.10;99.90;;;;;;5117950;28;20295;-64
2022/04/13 12:03:11;;;;;;;16.08;11.70;;;18.40;99.90;;;;;;5117816;28;20028;-64
2022/04/13 12:05:46;;;;;;;14.82;10.45;;;18.30;99.90;;;;;;5117706;28;20023;-64
2022/04/13 12:08:17;;;;;;;17.02;11.02;;;18.20;99.90;;;;;;5116976;28;20083;-66
2022/04/13 12:10:59;;;;;;;12.45;10.02;;;18.50;99.90;;;;;;5100224;28;20028;-64
2022/04/13 12:13:26;;;;;;;15.25;11.05;;;18.50;99.90;;;;;;5116998;28;20327;-64
2022/04/13 12:15:55;;;;;;;14.20;11.80;;;18.40;99.90;;;;;;5100214;28;20028;-65
2022/04/13 12:18:25;;;;;;;16.63;10.30;;;18.30;99.90;;;;;;5117607;28;20036;-64
2022/04/13 12:20:53;;;;;;;13.88;11.70;;;18.10;99.90;;;;;;5117942;28;20406;-64
2022/04/13 12:23:20;;;;;;;13.48;11.68;;;17.70;99.90;;;;;;5117516;28;20035;-64
2022/04/13 12:25:47;;;;;;;17.35;13.05;;;17.40;99.90;;;;;;5116662;28;20442;-62
2022/04/13 12:28:14;;;;;;;15.27;12.82;;;17.60;99.90;;;;;;5117492;28;20038;-63
2022/04/13 12:30:40;;;;;;;17.17;12.20;;;17.80;99.90;;;;;;5117473;28;20015;-64
2022/04/13 12:33:25;;;;;;;17.98;13.45;;;17.70;99.90;;;;;;5117441;28;20068;-64
2022/04/13 12:35:56;;;;;;;19.60;14.30;;;17.60;99.90;;;;;;5117278;28;20047;-65